sensor_id;sensor_type;location;lat;lon;timestamp;pressure;altitude;pressure_sealevel;temperature;humidity
44457;BME280;30159;49.316;8.558;2023-11-22T00:01:49;100918.03;;;6.98;100.00
44457;BME280;30159;49.316;8.558;2023-11-22T00:04:16;100926.31;;;6.96;100.00
44457;BME280;30159;49.316;8.558;2023-11-22T00:06:43;100931.94;;;6.95;100.00
44457;BME280;30159;49.316;8.558;2023-11-22T00:09:11;100890.66;;;6.50;100.00
44457;BME280;30159;49.316;8.558;2023-11-22T00:11:38;100943.81;;;6.70;100.00
44457;BME280;30159;49.316;8.558;2023-11-22T00:14:05;100929.69;;;6.46;100.00
44457;BME280;30159;49.316;8.558;2023-11-22T00:16:31;100952.06;;;6.40;100.00
44457;BME280;30159;49.316;8.558;2023-11-22T00:18:59;100952.72;;;6.19;100.00
44457;BME280;30159;49.316;8.558;2023-11-22T00:21:26;100952.34;;;6.15;100.00
44457;BME280;30159;49.316;8.558;2023-11-22T00:23:52;100949.13;;;6.13;100.00
44457;BME280;30159;49.316;8.558;2023-11-22T00:26:20;100961.94;;;6.11;100.00
44457;BME280;30159;49.316;8.558;2023-11-22T00:28:47;100972.41;;;6.01;100.00
44457;BME280;30159;49.316;8.558;2023-11-22T00:31:14;100969.72;;;5.89;100.00
44457;BME280;30159;49.316;8.558;2023-11-22T00:33:41;100969.59;;;5.84;100.00
44457;BME280;30159;49.316;8.558;2023-11-22T00:36:08;100979.50;;;5.72;100.00
44457;BME280;30159;49.316;8.558;2023-11-22T00:38:34;100986.94;;;5.69;100.00
44457;BME280;30159;49.316;8.558;2023-11-22T00:41:02;100986.94;;;5.69;100.00
44457;BME280;30159;49.316;8.558;2023-11-22T00:43:30;100996.94;;;5.62;100.00
44457;BME280;30159;49.316;8.558;2023-11-22T00:45:57;100975.66;;;5.56;100.00
44457;BME280;30159;49.316;8.558;2023-11-22T00:48:24;100981.59;;;5.58;100.00
44457;BME280;30159;49.316;8.558;2023-11-22T00:50:51;101014.41;;;5.77;100.00
44457;BME280;30159;49.316;8.558;2023-11-22T00:53:18;101001.50;;;5.62;100.00
44457;BME280;30159;49.316;8.558;2023-11-22T00:55:44;101009.75;;;5.60;100.00
44457;BME280;30159;49.316;8.558;2023-11-22T00:58:11;101011.22;;;5.44;100.00
44457;BME280;30159;49.316;8.558;2023-11-22T01:00:39;101027.38;;;5.38;100.00
44457;BME280;30159;49.316;8.558;2023-11-22T01:03:06;101030.31;;;5.36;100.00
44457;BME280;30159;49.316;8.558;2023-11-22T01:05:37;101021.97;;;5.14;100.00
44457;BME280;30159;49.316;8.558;2023-11-22T01:08:03;101034.09;;;5.28;100.00
44457;BME280;30159;49.316;8.558;2023-11-22T01:10:30;101034.56;;;5.25;100.00
44457;BME280;30159;49.316;8.558;2023-11-22T01:12:57;101033.28;;;5.28;100.00
44457;BME280;30159;49.316;8.558;2023-11-22T01:15:23;101019.41;;;5.19;100.00
44457;BME280;30159;49.316;8.558;2023-11-22T01:17:52;101032.94;;;5.24;100.00
44457;BME280;30159;49.316;8.558;2023-11-22T01:20:18;101034.19;;;5.22;100.00
44457;BME280;30159;49.316;8.558;2023-11-22T01:22:47;101039.22;;;5.30;100.00
44457;BME280;30159;49.316;8.558;2023-11-22T01:25:14;101033.66;;;5.32;100.00
44457;BME280;30159;49.316;8.558;2023-11-22T01:27:41;101039.47;;;5.40;100.00
44457;BME280;30159;49.316;8.558;2023-11-22T01:30:08;101037.72;;;5.34;100.00
44457;BME280;30159;49.316;8.558;2023-11-22T01:32:34;101049.13;;;5.30;100.00
44457;BME280;30159;49.316;8.558;2023-11-22T01:35:03;101052.22;;;5.26;100.00
44457;BME280;30159;49.316;8.558;2023-11-22T01:37:31;101045.47;;;5.24;100.00
44457;BME280;30159;49.316;8.558;2023-11-22T01:39:58;101048.81;;;5.19;100.00
44457;BME280;30159;49.316;8.558;2023-11-22T01:42:24;101051.50;;;5.19;100.00
44457;BME280;30159;49.316;8.558;2023-11-22T01:44:51;101040.16;;;5.05;100.00
44457;BME280;30159;49.316;8.558;2023-11-22T01:47:18;101060.72;;;5.23;100.00
44457;BME280;30159;49.316;8.558;2023-11-22T01:49:46;101063.47;;;5.17;100.00
44457;BME280;30159;49.316;8.558;2023-11-22T01:52:14;101065.34;;;5.16;100.00
44457;BME280;30159;49.316;8.558;2023-11-22T01:54:41;101068.56;;;5.06;100.00
44457;BME280;30159;49.316;8.558;2023-11-22T01:57:10;101071.44;;;5.05;100.00
44457;BME280;30159;49.316;8.558;2023-11-22T01:59:37;101085.34;;;4.95;100.00
44457;BME280;30159;49.316;8.558;2023-11-22T02:02:05;101086.25;;;4.89;100.00
44457;BME280;30159;49.316;8.558;2023-11-22T02:04:31;101092.84;;;4.86;100.00
44457;BME280;30159;49.316;8.558;2023-11-22T02:06:58;101082.47;;;4.78;100.00
44457;BME280;30159;49.316;8.558;2023-11-22T02:09:26;101089.75;;;4.71;100.00
44457;BME280;30159;49.316;8.558;2023-11-22T02:11:53;101082.75;;;4.70;100.00
44457;BME280;30159;49.316;8.558;2023-11-22T02:14:20;101091.25;;;4.67;100.00
44457;BME280;30159;49.316;8.558;2023-11-22T02:16:46;101091.25;;;4.67;100.00
44457;BME280;30159;49.316;8.558;2023-11-22T02:19:15;101067.34;;;4.54;100.00
44457;BME280;30159;49.316;8.558;2023-11-22T02:21:42;101091.91;;;4.62;100.00
44457;BME280;30159;49.316;8.558;2023-11-22T02:24:10;101101.94;;;4.67;100.00
44457;BME280;30159;49.316;8.558;2023-11-22T02:26:37;101115.34;;;4.60;100.00
44457;BME280;30159;49.316;8.558;2023-11-22T02:29:04;101119.28;;;4.58;100.00
44457;BME280;30159;49.316;8.558;2023-11-22T02:31:31;101125.66;;;4.57;100.00
44457;BME280;30159;49.316;8.558;2023-11-22T02:33:59;101126.34;;;4.52;100.00
44457;BME280;30159;49.316;8.558;2023-11-22T02:36:26;101135.03;;;4.48;100.00
44457;BME280;30159;49.316;8.558;2023-11-22T02:38:52;100948.44;;;3.27;100.00
44457;BME280;30159;49.316;8.558;2023-11-22T02:41:20;101146.13;;;4.44;100.00
44457;BME280;30159;49.316;8.558;2023-11-22T02:43:47;101144.91;;;4.40;100.00
44457;BME280;30159;49.316;8.558;2023-11-22T02:46:14;101150.56;;;4.32;100.00
44457;BME280;30159;49.316;8.558;2023-11-22T02:48:40;101159.00;;;4.29;100.00
44457;BME280;30159;49.316;8.558;2023-11-22T02:51:07;101159.00;;;4.29;100.00
44457;BME280;30159;49.316;8.558;2023-11-22T02:53:33;101161.50;;;4.24;100.00
44457;BME280;30159;49.316;8.558;2023-11-22T02:56:00;101156.59;;;4.21;100.00
44457;BME280;30159;49.316;8.558;2023-11-22T02:58:29;101164.00;;;4.19;100.00
44457;BME280;30159;49.316;8.558;2023-11-22T03:00:56;101166.91;;;4.17;100.00
44457;BME280;30159;49.316;8.558;2023-11-22T03:03:22;101166.69;;;4.19;100.00
44457;BME280;30159;49.316;8.558;2023-11-22T03:05:49;100997.75;;;3.11;100.00
44457;BME280;30159;49.316;8.558;2023-11-22T03:08:16;101159.13;;;4.16;100.00
44457;BME280;30159;49.316;8.558;2023-11-22T03:10:43;101154.38;;;4.18;100.00
44457;BME280;30159;49.316;8.558;2023-11-22T03:13:09;101152.56;;;4.12;100.00
44457;BME280;30159;49.316;8.558;2023-11-22T03:15:37;101170.28;;;4.06;100.00
44457;BME280;30159;49.316;8.558;2023-11-22T03:18:04;101163.28;;;4.05;100.00
44457;BME280;30159;49.316;8.558;2023-11-22T03:20:31;101163.78;;;3.95;100.00
44457;BME280;30159;49.316;8.558;2023-11-22T03:23:01;101146.88;;;3.76;100.00
44457;BME280;30159;49.316;8.558;2023-11-22T03:25:27;101172.63;;;3.89;100.00
44457;BME280;30159;49.316;8.558;2023-11-22T03:27:54;101176.19;;;3.83;100.00
44457;BME280;30159;49.316;8.558;2023-11-22T03:30:21;101184.03;;;3.78;100.00
44457;BME280;30159;49.316;8.558;2023-11-22T03:32:49;101159.31;;;3.57;100.00
44457;BME280;30159;49.316;8.558;2023-11-22T03:35:16;101176.28;;;3.63;100.00
44457;BME280;30159;49.316;8.558;2023-11-22T03:37:43;101206.69;;;3.62;100.00
44457;BME280;30159;49.316;8.558;2023-11-22T03:40:10;101209.56;;;3.54;100.00
44457;BME280;30159;49.316;8.558;2023-11-22T03:42:39;101160.94;;;3.13;100.00
44457;BME280;30159;49.316;8.558;2023-11-22T03:45:06;101210.81;;;3.51;100.00
44457;BME280;30159;49.316;8.558;2023-11-22T03:47:33;101220.25;;;3.54;100.00
44457;BME280;30159;49.316;8.558;2023-11-22T03:50:05;101225.78;;;3.59;100.00
44457;BME280;30159;49.316;8.558;2023-11-22T03:52:31;101231.75;;;3.54;100.00
44457;BME280;30159;49.316;8.558;2023-11-22T03:54:58;101233.41;;;3.49;100.00
44457;BME280;30159;49.316;8.558;2023-11-22T03:57:25;101215.63;;;3.29;100.00
44457;BME280;30159;49.316;8.558;2023-11-22T03:59:51;101228.53;;;3.39;100.00
44457;BME280;30159;49.316;8.558;2023-11-22T04:02:18;101227.88;;;3.44;100.00
44457;BME280;30159;49.316;8.558;2023-11-22T04:04:44;101226.47;;;3.41;100.00
44457;BME280;30159;49.316;8.558;2023-11-22T04:07:12;101227.28;;;3.35;100.00
44457;BME280;30159;49.316;8.558;2023-11-22T04:09:39;101236.94;;;3.36;100.00
44457;BME280;30159;49.316;8.558;2023-11-22T04:12:06;101234.28;;;3.36;100.00
44457;BME280;30159;49.316;8.558;2023-11-22T04:14:32;101245.34;;;3.33;100.00
44457;BME280;30159;49.316;8.558;2023-11-22T04:16:59;101241.69;;;3.27;100.00
44457;BME280;30159;49.316;8.558;2023-11-22T04:19:26;101235.13;;;3.30;100.00
44457;BME280;30159;49.316;8.558;2023-11-22T04:21:52;101237.16;;;3.34;100.00
44457;BME280;30159;49.316;8.558;2023-11-22T04:24:20;101251.13;;;3.23;100.00
44457;BME280;30159;49.316;8.558;2023-11-22T04:26:50;101245.41;;;3.20;100.00
44457;BME280;30159;49.316;8.558;2023-11-22T04:29:16;101239.69;;;3.03;100.00
44457;BME280;30159;49.316;8.558;2023-11-22T04:31:44;101249.53;;;3.02;100.00
44457;BME280;30159;49.316;8.558;2023-11-22T04:34:11;101286.03;;;3.02;100.00
44457;BME280;30159;49.316;8.558;2023-11-22T04:36:37;101290.31;;;3.03;100.00
44457;BME280;30159;49.316;8.558;2023-11-22T04:39:05;101300.59;;;2.99;100.00
44457;BME280;30159;49.316;8.558;2023-11-22T04:41:33;101307.97;;;3.04;100.00
44457;BME280;30159;49.316;8.558;2023-11-22T04:44:00;101307.53;;;2.93;100.00
44457;BME280;30159;49.316;8.558;2023-11-22T04:46:27;101285.63;;;2.85;100.00
44457;BME280;30159;49.316;8.558;2023-11-22T04:48:53;101302.81;;;2.89;100.00
44457;BME280;30159;49.316;8.558;2023-11-22T04:51:20;101312.06;;;2.93;100.00
44457;BME280;30159;49.316;8.558;2023-11-22T04:53:47;101305.91;;;2.86;100.00
44457;BME280;30159;49.316;8.558;2023-11-22T04:56:13;101316.75;;;2.84;100.00
44457;BME280;30159;49.316;8.558;2023-11-22T04:58:43;101320.66;;;2.82;100.00
44457;BME280;30159;49.316;8.558;2023-11-22T05:01:10;101280.50;;;2.50;100.00
44457;BME280;30159;49.316;8.558;2023-11-22T05:03:36;101339.75;;;2.85;100.00
44457;BME280;30159;49.316;8.558;2023-11-22T05:06:03;101336.44;;;2.83;100.00
44457;BME280;30159;49.316;8.558;2023-11-22T05:08:30;101328.25;;;2.78;100.00
44457;BME280;30159;49.316;8.558;2023-11-22T05:10:57;101333.16;;;2.74;100.00
44457;BME280;30159;49.316;8.558;2023-11-22T05:13:24;101282.34;;;2.43;100.00
44457;BME280;30159;49.316;8.558;2023-11-22T05:15:52;101335.63;;;2.69;100.00
44457;BME280;30159;49.316;8.558;2023-11-22T05:18:18;101311.44;;;2.51;100.00
44457;BME280;30159;49.316;8.558;2023-11-22T05:20:45;101340.94;;;2.56;100.00
44457;BME280;30159;49.316;8.558;2023-11-22T05:23:13;101335.22;;;2.59;100.00
44457;BME280;30159;49.316;8.558;2023-11-22T05:25:40;101328.44;;;2.43;100.00
44457;BME280;30159;49.316;8.558;2023-11-22T05:28:06;101317.94;;;2.35;100.00
44457;BME280;30159;49.316;8.558;2023-11-22T05:30:33;101345.41;;;2.49;100.00
44457;BME280;30159;49.316;8.558;2023-11-22T05:33:01;101347.06;;;2.50;100.00
44457;BME280;30159;49.316;8.558;2023-11-22T05:35:28;101349.75;;;2.50;100.00
44457;BME280;30159;49.316;8.558;2023-11-22T05:37:55;101337.03;;;2.45;100.00
44457;BME280;30159;49.316;8.558;2023-11-22T05:40:22;101359.78;;;2.48;100.00
44457;BME280;30159;49.316;8.558;2023-11-22T05:42:49;101349.09;;;2.35;100.00
44457;BME280;30159;49.316;8.558;2023-11-22T05:45:16;101359.56;;;2.43;100.00
44457;BME280;30159;49.316;8.558;2023-11-22T05:47:42;101367.72;;;2.35;100.00
44457;BME280;30159;49.316;8.558;2023-11-22T05:50:10;101377.34;;;2.29;100.00
44457;BME280;30159;49.316;8.558;2023-11-22T05:52:37;101379.78;;;2.30;100.00
44457;BME280;30159;49.316;8.558;2023-11-22T05:55:08;101356.16;;;2.01;100.00
44457;BME280;30159;49.316;8.558;2023-11-22T05:57:35;101340.53;;;1.91;100.00
44457;BME280;30159;49.316;8.558;2023-11-22T06:00:02;101328.25;;;1.83;100.00
44457;BME280;30159;49.316;8.558;2023-11-22T06:02:29;101232.00;;;1.12;100.00
44457;BME280;30159;49.316;8.558;2023-11-22T06:04:55;101403.09;;;2.22;100.00
44457;BME280;30159;49.316;8.558;2023-11-22T06:07:23;101398.41;;;2.24;100.00
44457;BME280;30159;49.316;8.558;2023-11-22T06:09:50;101413.75;;;2.28;100.00
44457;BME280;30159;49.316;8.558;2023-11-22T06:12:19;101418.66;;;2.25;100.00
44457;BME280;30159;49.316;8.558;2023-11-22T06:14:47;101419.94;;;2.29;100.00
44457;BME280;30159;49.316;8.558;2023-11-22T06:17:13;101412.56;;;2.38;100.00
44457;BME280;30159;49.316;8.558;2023-11-22T06:19:40;101403.97;;;2.42;100.00
44457;BME280;30159;49.316;8.558;2023-11-22T06:22:07;101409.06;;;2.30;100.00
44457;BME280;30159;49.316;8.558;2023-11-22T06:24:35;101409.91;;;2.31;100.00
44457;BME280;30159;49.316;8.558;2023-11-22T06:27:02;101415.81;;;2.26;100.00
44457;BME280;30159;49.316;8.558;2023-11-22T06:29:29;101414.78;;;2.27;100.00
44457;BME280;30159;49.316;8.558;2023-11-22T06:31:55;101427.66;;;2.17;100.00
44457;BME280;30159;49.316;8.558;2023-11-22T06:34:22;101428.91;;;2.28;100.00
44457;BME280;30159;49.316;8.558;2023-11-22T06:36:48;101426.69;;;2.31;100.00
44457;BME280;30159;49.316;8.558;2023-11-22T06:39:15;101434.44;;;2.33;100.00
44457;BME280;30159;49.316;8.558;2023-11-22T06:41:44;101441.59;;;2.19;100.00
44457;BME280;30159;49.316;8.558;2023-11-22T06:44:11;101451.97;;;2.14;100.00
44457;BME280;30159;49.316;8.558;2023-11-22T06:46:38;101455.91;;;2.18;100.00
44457;BME280;30159;49.316;8.558;2023-11-22T06:49:05;101445.66;;;2.15;100.00
44457;BME280;30159;49.316;8.558;2023-11-22T06:51:31;101460.78;;;2.08;100.00
44457;BME280;30159;49.316;8.558;2023-11-22T06:53:58;101466.94;;;2.15;100.00
44457;BME280;30159;49.316;8.558;2023-11-22T06:56:24;101451.53;;;2.04;100.00
44457;BME280;30159;49.316;8.558;2023-11-22T06:58:52;101480.88;;;2.17;100.00
44457;BME280;30159;49.316;8.558;2023-11-22T07:01:22;101484.31;;;2.11;100.00
44457;BME280;30159;49.316;8.558;2023-11-22T07:03:49;101472.81;;;2.04;100.00
44457;BME280;30159;49.316;8.558;2023-11-22T07:06:17;101493.94;;;2.12;100.00
44457;BME280;30159;49.316;8.558;2023-11-22T07:08:44;101478.31;;;2.02;100.00
44457;BME280;30159;49.316;8.558;2023-11-22T07:11:11;101492.56;;;2.23;100.00
44457;BME280;30159;49.316;8.558;2023-11-22T07:13:37;101458.47;;;2.05;100.00
44457;BME280;30159;49.316;8.558;2023-11-22T07:16:06;101488.69;;;2.25;100.00
44457;BME280;30159;49.316;8.558;2023-11-22T07:18:33;101492.75;;;2.21;100.00
44457;BME280;30159;49.316;8.558;2023-11-22T07:21:00;101501.72;;;2.14;99.92
44457;BME280;30159;49.316;8.558;2023-11-22T07:23:26;101493.50;;;2.08;97.37
44457;BME280;30159;49.316;8.558;2023-11-22T07:25:54;101507.50;;;2.17;95.98
44457;BME280;30159;49.316;8.558;2023-11-22T07:28:21;101448.44;;;2.00;97.83
44457;BME280;30159;49.316;8.558;2023-11-22T07:30:47;101493.59;;;2.28;95.82
44457;BME280;30159;49.316;8.558;2023-11-22T07:33:16;101493.00;;;2.26;95.64
44457;BME280;30159;49.316;8.558;2023-11-22T07:35:43;101483.50;;;2.10;94.97
44457;BME280;30159;49.316;8.558;2023-11-22T07:38:11;101505.47;;;2.26;95.19
44457;BME280;30159;49.316;8.558;2023-11-22T07:40:38;101481.50;;;2.19;94.60
44457;BME280;30159;49.316;8.558;2023-11-22T07:43:04;101502.81;;;2.26;94.11
44457;BME280;30159;49.316;8.558;2023-11-22T07:45:32;101484.16;;;2.19;94.11
44457;BME280;30159;49.316;8.558;2023-11-22T07:47:59;101504.25;;;2.28;94.01
44457;BME280;30159;49.316;8.558;2023-11-22T07:50:27;101503.06;;;2.38;95.26
44457;BME280;30159;49.316;8.558;2023-11-22T07:52:55;101499.81;;;2.36;94.78
44457;BME280;30159;49.316;8.558;2023-11-22T07:55:22;101479.06;;;2.24;94.20
44457;BME280;30159;49.316;8.558;2023-11-22T07:57:49;101501.88;;;2.47;95.94
44457;BME280;30159;49.316;8.558;2023-11-22T08:00:17;101492.88;;;2.41;94.90
44457;BME280;30159;49.316;8.558;2023-11-22T08:02:44;101501.69;;;2.48;94.22
44457;BME280;30159;49.316;8.558;2023-11-22T08:05:11;101500.66;;;2.43;94.04
44457;BME280;30159;49.316;8.558;2023-11-22T08:07:42;101370.44;;;1.58;94.24
44457;BME280;30159;49.316;8.558;2023-11-22T08:10:11;101499.63;;;2.44;93.78
44457;BME280;30159;49.316;8.558;2023-11-22T08:12:44;101512.19;;;2.63;94.34
44457;BME280;30159;49.316;8.558;2023-11-22T08:15:13;101519.41;;;2.69;95.06
44457;BME280;30159;49.316;8.558;2023-11-22T08:17:39;101520.03;;;2.71;92.63
44457;BME280;30159;49.316;8.558;2023-11-22T08:20:07;101519.25;;;2.78;92.92
44457;BME280;30159;49.316;8.558;2023-11-22T08:22:38;101458.84;;;2.37;91.18
44457;BME280;30159;49.316;8.558;2023-11-22T08:25:08;101516.75;;;2.69;90.81
44457;BME280;30159;49.316;8.558;2023-11-22T08:27:38;101501.38;;;2.71;91.61
44457;BME280;30159;49.316;8.558;2023-11-22T08:30:05;101513.09;;;2.84;91.20
44457;BME280;30159;49.316;8.558;2023-11-22T08:32:38;101519.25;;;2.91;90.90
44457;BME280;30159;49.316;8.558;2023-11-22T08:35:07;101511.25;;;2.84;90.03
44457;BME280;30159;49.316;8.558;2023-11-22T08:37:34;101522.94;;;2.83;89.93
44457;BME280;30159;49.316;8.558;2023-11-22T08:40:04;101525.41;;;2.85;91.30
44457;BME280;30159;49.316;8.558;2023-11-22T08:42:33;101530.34;;;2.88;89.34
44457;BME280;30159;49.316;8.558;2023-11-22T08:44:59;101532.22;;;2.94;90.35
44457;BME280;30159;49.316;8.558;2023-11-22T08:47:27;101527.50;;;2.96;91.30
44457;BME280;30159;49.316;8.558;2023-11-22T08:49:54;101522.75;;;2.85;90.13
44457;BME280;30159;49.316;8.558;2023-11-22T08:52:21;101541.66;;;3.03;90.80
44457;BME280;30159;49.316;8.558;2023-11-22T08:54:48;101548.84;;;3.16;89.65
44457;BME280;30159;49.316;8.558;2023-11-22T08:57:15;101501.66;;;2.90;89.57
44457;BME280;30159;49.316;8.558;2023-11-22T08:59:43;101524.88;;;3.16;90.23
44457;BME280;30159;49.316;8.558;2023-11-22T09:02:10;101526.75;;;3.29;90.19
44457;BME280;30159;49.316;8.558;2023-11-22T09:04:38;101493.06;;;3.01;88.24
44457;BME280;30159;49.316;8.558;2023-11-22T09:07:07;101527.34;;;3.31;88.47
44457;BME280;30159;49.316;8.558;2023-11-22T09:09:35;101381.47;;;2.38;89.24
44457;BME280;30159;49.316;8.558;2023-11-22T09:12:02;101532.09;;;3.42;89.21
44457;BME280;30159;49.316;8.558;2023-11-22T09:14:28;101531.88;;;3.44;87.84
44457;BME280;30159;49.316;8.558;2023-11-22T09:16:57;101539.28;;;3.48;87.55
44457;BME280;30159;49.316;8.558;2023-11-22T09:19:24;101521.41;;;3.42;87.84
44457;BME280;30159;49.316;8.558;2023-11-22T09:21:51;101530.44;;;3.41;86.94
44457;BME280;30159;49.316;8.558;2023-11-22T09:24:18;101433.34;;;2.69;88.05
44457;BME280;30159;49.316;8.558;2023-11-22T09:26:45;101555.47;;;3.47;87.73
44457;BME280;30159;49.316;8.558;2023-11-22T09:29:11;101558.34;;;3.52;88.11
44457;BME280;30159;49.316;8.558;2023-11-22T09:31:39;101565.75;;;3.56;86.47
44457;BME280;30159;49.316;8.558;2023-11-22T09:34:08;101566.78;;;3.55;86.30
44457;BME280;30159;49.316;8.558;2023-11-22T09:36:35;101514.63;;;3.26;87.32
44457;BME280;30159;49.316;8.558;2023-11-22T09:39:02;101562.09;;;3.71;86.14
44457;BME280;30159;49.316;8.558;2023-11-22T09:41:33;101558.34;;;3.58;86.08
44457;BME280;30159;49.316;8.558;2023-11-22T09:44:00;101558.97;;;3.61;86.70
44457;BME280;30159;49.316;8.558;2023-11-22T09:46:27;101536.00;;;3.46;86.51
44457;BME280;30159;49.316;8.558;2023-11-22T09:48:56;101558.56;;;3.70;85.34
44457;BME280;30159;49.316;8.558;2023-11-22T09:51:27;101570.09;;;3.71;84.76
44457;BME280;30159;49.316;8.558;2023-11-22T09:53:56;101568.63;;;3.88;84.97
44457;BME280;30159;49.316;8.558;2023-11-22T09:56:25;101573.34;;;3.86;83.73
44457;BME280;30159;49.316;8.558;2023-11-22T09:58:53;101569.69;;;3.87;82.73
44457;BME280;30159;49.316;8.558;2023-11-22T10:01:21;101577.66;;;4.00;82.50
44457;BME280;30159;49.316;8.558;2023-11-22T10:03:48;101561.63;;;4.20;83.02
44457;BME280;30159;49.316;8.558;2023-11-22T10:06:16;101572.50;;;4.32;81.25
44457;BME280;30159;49.316;8.558;2023-11-22T10:08:44;101585.41;;;4.35;80.84
44457;BME280;30159;49.316;8.558;2023-11-22T10:11:14;101577.66;;;4.14;80.46
44457;BME280;30159;49.316;8.558;2023-11-22T10:13:42;101592.00;;;4.26;80.29
44457;BME280;30159;49.316;8.558;2023-11-22T10:16:12;101588.72;;;4.37;80.79
44457;BME280;30159;49.316;8.558;2023-11-22T10:18:41;101580.88;;;4.49;82.11
44457;BME280;30159;49.316;8.558;2023-11-22T10:21:22;101580.50;;;4.39;81.13
44457;BME280;30159;49.316;8.558;2023-11-22T10:23:51;101585.38;;;4.55;79.87
44457;BME280;30159;49.316;8.558;2023-11-22T10:26:19;101597.94;;;4.48;79.20
44457;BME280;30159;49.316;8.558;2023-11-22T10:28:45;101591.34;;;4.64;80.39
44457;BME280;30159;49.316;8.558;2023-11-22T10:31:13;101596.78;;;4.89;77.94
44457;BME280;30159;49.316;8.558;2023-11-22T10:33:40;101593.25;;;5.02;78.37
44457;BME280;30159;49.316;8.558;2023-11-22T10:36:07;101595.91;;;5.02;77.30
44457;BME280;30159;49.316;8.558;2023-11-22T10:38:34;101596.09;;;5.07;78.18
44457;BME280;30159;49.316;8.558;2023-11-22T10:41:05;101594.66;;;5.04;77.02
44457;BME280;30159;49.316;8.558;2023-11-22T10:43:34;101609.25;;;5.09;77.06
44457;BME280;30159;49.316;8.558;2023-11-22T10:46:02;101638.84;;;5.14;78.41
44457;BME280;30159;49.316;8.558;2023-11-22T10:48:30;101612.88;;;5.27;77.26
44457;BME280;30159;49.316;8.558;2023-11-22T10:51:00;101604.25;;;5.19;77.23
44457;BME280;30159;49.316;8.558;2023-11-22T10:53:31;101614.38;;;5.10;77.65
44457;BME280;30159;49.316;8.558;2023-11-22T10:56:04;101632.16;;;4.84;77.48
44457;BME280;30159;49.316;8.558;2023-11-22T10:58:32;101621.06;;;4.88;78.90
44457;BME280;30159;49.316;8.558;2023-11-22T11:01:00;101601.09;;;4.90;78.23
44457;BME280;30159;49.316;8.558;2023-11-22T11:03:32;101622.78;;;5.20;77.68
44457;BME280;30159;49.316;8.558;2023-11-22T11:06:08;101622.28;;;5.37;78.08
44457;BME280;30159;49.316;8.558;2023-11-22T11:08:38;101615.88;;;5.38;76.51
44457;BME280;30159;49.316;8.558;2023-11-22T11:11:07;101620.47;;;5.31;76.86
44457;BME280;30159;49.316;8.558;2023-11-22T11:13:34;101625.44;;;5.20;77.31
44457;BME280;30159;49.316;8.558;2023-11-22T11:16:01;101640.22;;;5.30;77.31
44457;BME280;30159;49.316;8.558;2023-11-22T11:18:28;101627.56;;;5.05;76.84
44457;BME280;30159;49.316;8.558;2023-11-22T11:20:56;101627.53;;;5.18;76.96
44457;BME280;30159;49.316;8.558;2023-11-22T11:23:26;101615.56;;;5.21;76.79
44457;BME280;30159;49.316;8.558;2023-11-22T11:25:54;101636.28;;;5.39;76.19
44457;BME280;30159;49.316;8.558;2023-11-22T11:28:23;101610.66;;;5.18;76.20
44457;BME280;30159;49.316;8.558;2023-11-22T11:30:52;101627.69;;;5.23;76.81
44457;BME280;30159;49.316;8.558;2023-11-22T11:33:26;101642.13;;;5.22;77.01
44457;BME280;30159;49.316;8.558;2023-11-22T11:35:56;101660.41;;;5.25;76.36
44457;BME280;30159;49.316;8.558;2023-11-22T11:38:30;101621.22;;;5.06;77.22
44457;BME280;30159;49.316;8.558;2023-11-22T11:41:06;101627.53;;;5.18;77.47
44457;BME280;30159;49.316;8.558;2023-11-22T11:43:40;101648.78;;;5.45;76.09
44457;BME280;30159;49.316;8.558;2023-11-22T11:46:08;101662.09;;;5.58;75.61
44457;BME280;30159;49.316;8.558;2023-11-22T11:48:35;101661.31;;;5.51;76.15
44457;BME280;30159;49.316;8.558;2023-11-22T11:51:02;101586.63;;;5.11;75.25
44457;BME280;30159;49.316;8.558;2023-11-22T11:53:28;101659.84;;;5.55;74.26
44457;BME280;30159;49.316;8.558;2023-11-22T11:55:57;101657.69;;;5.39;75.07
44457;BME280;30159;49.316;8.558;2023-11-22T11:58:24;101669.19;;;5.39;75.58
44457;BME280;30159;49.316;8.558;2023-11-22T12:00:54;101672.16;;;5.24;75.90
44457;BME280;30159;49.316;8.558;2023-11-22T12:03:20;101667.78;;;5.30;75.58
44457;BME280;30159;49.316;8.558;2023-11-22T12:05:47;101683.44;;;5.26;75.66
44457;BME280;30159;49.316;8.558;2023-11-22T12:08:15;101671.16;;;5.12;75.88
44457;BME280;30159;49.316;8.558;2023-11-22T12:10:42;101681.81;;;5.19;76.12
44457;BME280;30159;49.316;8.558;2023-11-22T12:13:15;101687.63;;;5.02;75.90
44457;BME280;30159;49.316;8.558;2023-11-22T12:15:42;101569.22;;;4.30;76.01
44457;BME280;30159;49.316;8.558;2023-11-22T12:18:10;101675.47;;;5.13;75.71
44457;BME280;30159;49.316;8.558;2023-11-22T12:20:38;101675.19;;;5.35;76.26
44457;BME280;30159;49.316;8.558;2023-11-22T12:23:05;101673.56;;;5.65;76.13
44457;BME280;30159;49.316;8.558;2023-11-22T12:25:32;101660.84;;;5.61;73.81
44457;BME280;30159;49.316;8.558;2023-11-22T12:27:59;101658.81;;;5.56;73.71
44457;BME280;30159;49.316;8.558;2023-11-22T12:30:28;101661.41;;;5.69;74.88
44457;BME280;30159;49.316;8.558;2023-11-22T12:32:55;101623.16;;;5.62;73.58
44457;BME280;30159;49.316;8.558;2023-11-22T12:35:23;101651.75;;;6.00;72.95
44457;BME280;30159;49.316;8.558;2023-11-22T12:37:50;101639.19;;;5.69;73.30
44457;BME280;30159;49.316;8.558;2023-11-22T12:40:20;101622.81;;;5.84;74.16
44457;BME280;30159;49.316;8.558;2023-11-22T12:42:47;101637.22;;;6.15;72.97
44457;BME280;30159;49.316;8.558;2023-11-22T12:45:19;101619.50;;;6.14;72.23
44457;BME280;30159;49.316;8.558;2023-11-22T12:47:46;101626.38;;;6.53;73.46
44457;BME280;30159;49.316;8.558;2023-11-22T12:53:12;101629.09;;;6.46;71.35
44457;BME280;30159;49.316;8.558;2023-11-22T12:55:41;101630.44;;;6.12;71.40
44457;BME280;30159;49.316;8.558;2023-11-22T12:58:09;101601.75;;;5.62;70.80
44457;BME280;30159;49.316;8.558;2023-11-22T13:00:35;101641.25;;;5.99;71.57